sensor_id;sensor_type;location;lat;lon;timestamp;temperature;humidity
9329;DHT22;4703;48.748;19.142;2023-03-01T00:01:20;0.70;99.90
9329;DHT22;4703;48.748;19.142;2023-03-01T00:03:52;0.70;99.90
9329;DHT22;4703;48.748;19.142;2023-03-01T00:06:20;0.80;99.90
9329;DHT22;4703;48.748;19.142;2023-03-01T00:08:48;0.90;99.90
9329;DHT22;4703;48.748;19.142;2023-03-01T00:13:47;1.00;99.90
9329;DHT22;4703;48.748;19.142;2023-03-01T00:16:17;0.90;99.90
9329;DHT22;4703;48.748;19.142;2023-03-01T00:18:46;0.80;99.90
9329;DHT22;4703;48.748;19.142;2023-03-01T00:21:14;0.90;99.90
9329;DHT22;4703;48.748;19.142;2023-03-01T00:23:41;0.90;99.90
9329;DHT22;4703;48.748;19.142;2023-03-01T00:26:11;0.90;99.90
9329;DHT22;4703;48.748;19.142;2023-03-01T00:28:39;0.90;99.90
9329;DHT22;4703;48.748;19.142;2023-03-01T00:31:10;0.90;99.90
9329;DHT22;4703;48.748;19.142;2023-03-01T00:33:39;0.90;99.90
9329;DHT22;4703;48.748;19.142;2023-03-01T00:36:07;0.90;99.90
9329;DHT22;4703;48.748;19.142;2023-03-01T00:38:44;0.90;99.90
9329;DHT22;4703;48.748;19.142;2023-03-01T00:41:14;0.90;99.90
9329;DHT22;4703;48.748;19.142;2023-03-01T00:43:43;0.80;99.90
9329;DHT22;4703;48.748;19.142;2023-03-01T00:46:15;0.90;99.90
9329;DHT22;4703;48.748;19.142;2023-03-01T00:48:44;0.80;99.90
9329;DHT22;4703;48.748;19.142;2023-03-01T00:51:15;0.90;99.90
9329;DHT22;4703;48.748;19.142;2023-03-01T00:53:54;0.90;99.90
9329;DHT22;4703;48.748;19.142;2023-03-01T00:56:23;0.70;99.90
9329;DHT22;4703;48.748;19.142;2023-03-01T00:58:51;0.70;99.90
9329;DHT22;4703;48.748;19.142;2023-03-01T01:01:21;0.80;99.90
9329;DHT22;4703;48.748;19.142;2023-03-01T01:03:53;0.90;99.90
9329;DHT22;4703;48.748;19.142;2023-03-01T01:06:43;0.80;99.90
9329;DHT22;4703;48.748;19.142;2023-03-01T01:09:14;0.80;99.90
9329;DHT22;4703;48.748;19.142;2023-03-01T01:11:47;2.70;99.90
9329;DHT22;4703;48.748;19.142;2023-03-01T01:14:17;0.90;99.90
9329;DHT22;4703;48.748;19.142;2023-03-01T01:16:45;0.90;99.90
9329;DHT22;4703;48.748;19.142;2023-03-01T01:19:12;0.80;99.90
9329;DHT22;4703;48.748;19.142;2023-03-01T01:21:40;0.90;99.90
9329;DHT22;4703;48.748;19.142;2023-03-01T01:24:09;0.90;99.90
9329;DHT22;4703;48.748;19.142;2023-03-01T01:26:37;0.80;99.90
9329;DHT22;4703;48.748;19.142;2023-03-01T01:29:05;0.80;99.90
9329;DHT22;4703;48.748;19.142;2023-03-01T01:31:33;1.00;99.90
9329;DHT22;4703;48.748;19.142;2023-03-01T01:34:03;0.80;99.90
9329;DHT22;4703;48.748;19.142;2023-03-01T01:36:32;0.90;99.90
9329;DHT22;4703;48.748;19.142;2023-03-01T01:38:59;0.90;99.90
9329;DHT22;4703;48.748;19.142;2023-03-01T01:41:28;0.90;99.90
9329;DHT22;4703;48.748;19.142;2023-03-01T01:44:15;1.00;99.90
9329;DHT22;4703;48.748;19.142;2023-03-01T01:46:49;1.00;99.90
9329;DHT22;4703;48.748;19.142;2023-03-01T01:49:44;1.00;99.90
9329;DHT22;4703;48.748;19.142;2023-03-01T01:52:34;0.90;99.90
9329;DHT22;4703;48.748;19.142;2023-03-01T01:55:06;1.10;99.90
9329;DHT22;4703;48.748;19.142;2023-03-01T01:57:41;1.10;99.90
9329;DHT22;4703;48.748;19.142;2023-03-01T02:00:18;1.10;99.90
9329;DHT22;4703;48.748;19.142;2023-03-01T02:02:49;1.20;99.90
9329;DHT22;4703;48.748;19.142;2023-03-01T02:05:47;1.10;99.90
9329;DHT22;4703;48.748;19.142;2023-03-01T02:08:25;1.10;99.90
9329;DHT22;4703;48.748;19.142;2023-03-01T02:10:54;1.10;99.90
9329;DHT22;4703;48.748;19.142;2023-03-01T02:13:23;1.10;99.90
9329;DHT22;4703;48.748;19.142;2023-03-01T02:15:50;1.10;99.90
9329;DHT22;4703;48.748;19.142;2023-03-01T02:18:18;1.10;99.90
9329;DHT22;4703;48.748;19.142;2023-03-01T02:20:59;1.20;99.90
9329;DHT22;4703;48.748;19.142;2023-03-01T02:23:32;1.30;99.90
9329;DHT22;4703;48.748;19.142;2023-03-01T02:26:21;1.20;99.90
9329;DHT22;4703;48.748;19.142;2023-03-01T02:28:52;1.20;99.90
9329;DHT22;4703;48.748;19.142;2023-03-01T02:31:20;1.20;99.90
9329;DHT22;4703;48.748;19.142;2023-03-01T02:34:25;1.20;99.90
9329;DHT22;4703;48.748;19.142;2023-03-01T02:37:03;1.20;99.90
9329;DHT22;4703;48.748;19.142;2023-03-01T02:39:40;1.10;99.90
9329;DHT22;4703;48.748;19.142;2023-03-01T02:42:12;1.20;99.90
9329;DHT22;4703;48.748;19.142;2023-03-01T02:44:41;4.10;99.90
9329;DHT22;4703;48.748;19.142;2023-03-01T02:47:08;3.10;99.90
9329;DHT22;4703;48.748;19.142;2023-03-01T02:49:37;1.10;99.90
9329;DHT22;4703;48.748;19.142;2023-03-01T02:57:34;1.20;99.90
9329;DHT22;4703;48.748;19.142;2023-03-01T03:00:09;1.10;99.90
9329;DHT22;4703;48.748;19.142;2023-03-01T03:02:51;1.10;99.90
9329;DHT22;4703;48.748;19.142;2023-03-01T03:05:23;1.20;99.90
9329;DHT22;4703;48.748;19.142;2023-03-01T03:07:54;1.10;99.90
9329;DHT22;4703;48.748;19.142;2023-03-01T03:10:30;1.20;99.90
9329;DHT22;4703;48.748;19.142;2023-03-01T03:13:12;1.20;99.90
9329;DHT22;4703;48.748;19.142;2023-03-01T03:15:41;1.20;99.90
9329;DHT22;4703;48.748;19.142;2023-03-01T03:18:14;1.10;99.90
9329;DHT22;4703;48.748;19.142;2023-03-01T03:20:43;3.80;99.90
9329;DHT22;4703;48.748;19.142;2023-03-01T03:23:10;2.20;99.90
9329;DHT22;4703;48.748;19.142;2023-03-01T03:25:37;1.10;99.90
9329;DHT22;4703;48.748;19.142;2023-03-01T03:28:06;1.10;99.90
9329;DHT22;4703;48.748;19.142;2023-03-01T03:30:39;1.20;99.90
9329;DHT22;4703;48.748;19.142;2023-03-01T03:33:08;1.20;99.90
9329;DHT22;4703;48.748;19.142;2023-03-01T03:35:49;1.20;99.90
9329;DHT22;4703;48.748;19.142;2023-03-01T03:38:18;1.20;99.90
9329;DHT22;4703;48.748;19.142;2023-03-01T03:40:52;1.20;99.90
9329;DHT22;4703;48.748;19.142;2023-03-01T03:43:32;1.20;99.90
9329;DHT22;4703;48.748;19.142;2023-03-01T03:46:00;1.10;99.90
9329;DHT22;4703;48.748;19.142;2023-03-01T03:48:27;1.20;99.90
9329;DHT22;4703;48.748;19.142;2023-03-01T03:50:55;1.20;99.90
9329;DHT22;4703;48.748;19.142;2023-03-01T03:53:24;1.20;99.90
9329;DHT22;4703;48.748;19.142;2023-03-01T03:55:53;1.10;99.90
9329;DHT22;4703;48.748;19.142;2023-03-01T03:58:22;4.00;99.90
9329;DHT22;4703;48.748;19.142;2023-03-01T04:00:52;1.20;99.90
9329;DHT22;4703;48.748;19.142;2023-03-01T04:03:23;1.20;99.90
9329;DHT22;4703;48.748;19.142;2023-03-01T04:05:52;1.20;99.90
9329;DHT22;4703;48.748;19.142;2023-03-01T04:08:21;1.20;99.90
9329;DHT22;4703;48.748;19.142;2023-03-01T04:10:51;1.20;99.90
9329;DHT22;4703;48.748;19.142;2023-03-01T04:13:21;2.30;99.90
9329;DHT22;4703;48.748;19.142;2023-03-01T04:15:49;1.20;99.90
9329;DHT22;4703;48.748;19.142;2023-03-01T04:18:22;1.30;99.90
9329;DHT22;4703;48.748;19.142;2023-03-01T04:20:50;1.20;99.90
9329;DHT22;4703;48.748;19.142;2023-03-01T04:23:19;1.20;99.90
9329;DHT22;4703;48.748;19.142;2023-03-01T04:25:54;1.10;99.90
9329;DHT22;4703;48.748;19.142;2023-03-01T04:30:53;1.00;99.90
9329;DHT22;4703;48.748;19.142;2023-03-01T04:33:21;2.00;99.90
9329;DHT22;4703;48.748;19.142;2023-03-01T04:35:49;1.00;99.90
9329;DHT22;4703;48.748;19.142;2023-03-01T04:38:20;0.90;99.90
9329;DHT22;4703;48.748;19.142;2023-03-01T04:40:47;0.90;99.90
9329;DHT22;4703;48.748;19.142;2023-03-01T04:43:15;0.90;99.90
9329;DHT22;4703;48.748;19.142;2023-03-01T04:45:42;0.90;99.90
9329;DHT22;4703;48.748;19.142;2023-03-01T04:48:09;0.80;99.90
9329;DHT22;4703;48.748;19.142;2023-03-01T04:50:36;0.70;99.90
9329;DHT22;4703;48.748;19.142;2023-03-01T04:53:03;0.70;99.90
9329;DHT22;4703;48.748;19.142;2023-03-01T04:55:30;0.60;99.90
9329;DHT22;4703;48.748;19.142;2023-03-01T04:57:58;0.60;99.90
9329;DHT22;4703;48.748;19.142;2023-03-01T05:00:25;0.60;99.90
9329;DHT22;4703;48.748;19.142;2023-03-01T05:02:59;0.60;99.90
9329;DHT22;4703;48.748;19.142;2023-03-01T05:05:32;0.60;99.90
9329;DHT22;4703;48.748;19.142;2023-03-01T05:08:03;0.60;99.90
9329;DHT22;4703;48.748;19.142;2023-03-01T05:10:33;0.50;99.90
9329;DHT22;4703;48.748;19.142;2023-03-01T05:13:02;3.30;99.90
9329;DHT22;4703;48.748;19.142;2023-03-01T05:15:31;0.50;99.90
9329;DHT22;4703;48.748;19.142;2023-03-01T05:18:00;0.40;99.90
9329;DHT22;4703;48.748;19.142;2023-03-01T05:20:28;0.40;99.90
9329;DHT22;4703;48.748;19.142;2023-03-01T05:22:58;0.40;99.90
9329;DHT22;4703;48.748;19.142;2023-03-01T05:25:26;0.40;99.90
9329;DHT22;4703;48.748;19.142;2023-03-01T05:27:54;0.40;99.90
9329;DHT22;4703;48.748;19.142;2023-03-01T05:30:20;0.40;99.90
9329;DHT22;4703;48.748;19.142;2023-03-01T05:32:50;2.40;99.90
9329;DHT22;4703;48.748;19.142;2023-03-01T05:35:23;3.60;99.90
9329;DHT22;4703;48.748;19.142;2023-03-01T05:37:51;0.40;99.90
9329;DHT22;4703;48.748;19.142;2023-03-01T05:40:20;0.50;99.90
9329;DHT22;4703;48.748;19.142;2023-03-01T05:42:53;3.20;99.90
9329;DHT22;4703;48.748;19.142;2023-03-01T05:45:23;0.50;99.90
9329;DHT22;4703;48.748;19.142;2023-03-01T05:47:51;1.70;99.90
9329;DHT22;4703;48.748;19.142;2023-03-01T05:52:57;0.50;99.90
9329;DHT22;4703;48.748;19.142;2023-03-01T05:55:26;0.60;99.90
9329;DHT22;4703;48.748;19.142;2023-03-01T05:57:55;0.50;99.90
9329;DHT22;4703;48.748;19.142;2023-03-01T06:00:22;0.60;99.90
9329;DHT22;4703;48.748;19.142;2023-03-01T06:02:49;0.70;99.90
9329;DHT22;4703;48.748;19.142;2023-03-01T06:05:18;3.90;99.90
9329;DHT22;4703;48.748;19.142;2023-03-01T06:07:45;2.00;99.90
9329;DHT22;4703;48.748;19.142;2023-03-01T06:10:13;0.70;99.90
9329;DHT22;4703;48.748;19.142;2023-03-01T06:12:42;2.90;99.90
9329;DHT22;4703;48.748;19.142;2023-03-01T06:15:12;0.70;99.90
9329;DHT22;4703;48.748;19.142;2023-03-01T06:17:42;0.70;99.90
9329;DHT22;4703;48.748;19.142;2023-03-01T06:20:14;0.70;99.90
9329;DHT22;4703;48.748;19.142;2023-03-01T06:22:43;0.70;99.90
9329;DHT22;4703;48.748;19.142;2023-03-01T06:25:12;0.70;99.90
9329;DHT22;4703;48.748;19.142;2023-03-01T06:27:41;0.70;99.90
9329;DHT22;4703;48.748;19.142;2023-03-01T06:30:10;0.70;99.90
9329;DHT22;4703;48.748;19.142;2023-03-01T06:32:39;0.90;99.90
9329;DHT22;4703;48.748;19.142;2023-03-01T06:35:13;0.80;99.90
9329;DHT22;4703;48.748;19.142;2023-03-01T06:37:46;0.90;99.90
9329;DHT22;4703;48.748;19.142;2023-03-01T06:40:15;0.80;99.90
9329;DHT22;4703;48.748;19.142;2023-03-01T06:42:43;0.90;99.90
9329;DHT22;4703;48.748;19.142;2023-03-01T06:45:19;0.90;99.90
9329;DHT22;4703;48.748;19.142;2023-03-01T06:47:47;3.90;99.90
9329;DHT22;4703;48.748;19.142;2023-03-01T06:50:15;1.00;99.90
9329;DHT22;4703;48.748;19.142;2023-03-01T06:52:42;1.00;99.90
9329;DHT22;4703;48.748;19.142;2023-03-01T06:55:12;-1.60;99.90
9329;DHT22;4703;48.748;19.142;2023-03-01T06:57:39;1.00;99.90
9329;DHT22;4703;48.748;19.142;2023-03-01T07:00:07;1.90;99.90
9329;DHT22;4703;48.748;19.142;2023-03-01T07:02:35;1.10;99.90
9329;DHT22;4703;48.748;19.142;2023-03-01T07:05:02;1.20;99.90
9329;DHT22;4703;48.748;19.142;2023-03-01T07:07:29;1.40;99.90
9329;DHT22;4703;48.748;19.142;2023-03-01T07:09:56;2.80;99.90
9329;DHT22;4703;48.748;19.142;2023-03-01T07:12:23;3.60;99.90
9329;DHT22;4703;48.748;19.142;2023-03-01T07:14:50;1.50;99.90
9329;DHT22;4703;48.748;19.142;2023-03-01T07:17:16;1.60;99.90
9329;DHT22;4703;48.748;19.142;2023-03-01T07:19:44;1.60;99.90
9329;DHT22;4703;48.748;19.142;2023-03-01T07:22:11;1.70;99.90
9329;DHT22;4703;48.748;19.142;2023-03-01T07:24:38;1.70;99.90
9329;DHT22;4703;48.748;19.142;2023-03-01T07:27:05;4.50;99.90
9329;DHT22;4703;48.748;19.142;2023-03-01T07:29:32;1.90;99.90
9329;DHT22;4703;48.748;19.142;2023-03-01T07:31:59;3.30;99.90
9329;DHT22;4703;48.748;19.142;2023-03-01T07:34:26;3.40;99.90
9329;DHT22;4703;48.748;19.142;2023-03-01T07:36:54;2.10;99.90
9329;DHT22;4703;48.748;19.142;2023-03-01T07:39:21;2.20;99.90
9329;DHT22;4703;48.748;19.142;2023-03-01T07:41:50;2.20;99.90
9329;DHT22;4703;48.748;19.142;2023-03-01T07:44:17;2.40;99.90
9329;DHT22;4703;48.748;19.142;2023-03-01T07:46:44;2.50;99.90
9329;DHT22;4703;48.748;19.142;2023-03-01T07:49:11;2.50;99.90
9329;DHT22;4703;48.748;19.142;2023-03-01T07:51:38;2.50;99.90
9329;DHT22;4703;48.748;19.142;2023-03-01T07:54:05;2.60;99.90
9329;DHT22;4703;48.748;19.142;2023-03-01T07:56:32;2.70;99.90
9329;DHT22;4703;48.748;19.142;2023-03-01T07:58:59;2.70;99.90
9329;DHT22;4703;48.748;19.142;2023-03-01T08:01:26;2.70;99.90
9329;DHT22;4703;48.748;19.142;2023-03-01T08:03:53;2.80;99.90
9329;DHT22;4703;48.748;19.142;2023-03-01T08:06:21;2.80;99.90
9329;DHT22;4703;48.748;19.142;2023-03-01T08:08:48;3.00;99.90
9329;DHT22;4703;48.748;19.142;2023-03-01T08:11:15;5.50;99.90
9329;DHT22;4703;48.748;19.142;2023-03-01T08:13:43;1.40;99.10
9329;DHT22;4703;48.748;19.142;2023-03-01T08:16:12;3.20;99.10
9329;DHT22;4703;48.748;19.142;2023-03-01T08:18:42;3.40;98.50
9329;DHT22;4703;48.748;19.142;2023-03-01T08:21:12;3.50;98.20
9329;DHT22;4703;48.748;19.142;2023-03-01T08:23:41;3.60;98.50
9329;DHT22;4703;48.748;19.142;2023-03-01T08:28:39;3.80;98.70
9329;DHT22;4703;48.748;19.142;2023-03-01T08:31:34;3.80;98.70
9329;DHT22;4703;48.748;19.142;2023-03-01T08:34:08;4.00;98.20
9329;DHT22;4703;48.748;19.142;2023-03-01T08:36:39;4.10;97.70
9329;DHT22;4703;48.748;19.142;2023-03-01T08:39:08;4.20;97.20
9329;DHT22;4703;48.748;19.142;2023-03-01T08:41:37;4.40;97.40
9329;DHT22;4703;48.748;19.142;2023-03-01T08:44:05;4.50;96.90
9329;DHT22;4703;48.748;19.142;2023-03-01T08:46:36;4.60;96.90
9329;DHT22;4703;48.748;19.142;2023-03-01T08:49:15;4.70;96.60
9329;DHT22;4703;48.748;19.142;2023-03-01T08:51:44;6.90;97.40
9329;DHT22;4703;48.748;19.142;2023-03-01T08:54:14;4.80;96.60
9329;DHT22;4703;48.748;19.142;2023-03-01T08:56:46;4.90;96.30
9329;DHT22;4703;48.748;19.142;2023-03-01T08:59:15;6.90;96.50
9329;DHT22;4703;48.748;19.142;2023-03-01T09:01:43;5.00;95.50
9329;DHT22;4703;48.748;19.142;2023-03-01T09:04:12;5.10;95.40
9329;DHT22;4703;48.748;19.142;2023-03-01T09:06:39;5.20;95.20
9329;DHT22;4703;48.748;19.142;2023-03-01T09:09:07;5.20;95.20
9329;DHT22;4703;48.748;19.142;2023-03-01T09:11:42;5.30;95.10
9329;DHT22;4703;48.748;19.142;2023-03-01T09:14:11;5.40;94.80
9329;DHT22;4703;48.748;19.142;2023-03-01T09:16:39;5.40;94.90
9329;DHT22;4703;48.748;19.142;2023-03-01T09:19:06;5.50;95.00
9329;DHT22;4703;48.748;19.142;2023-03-01T09:21:33;5.60;94.60
9329;DHT22;4703;48.748;19.142;2023-03-01T09:24:12;5.60;94.30
9329;DHT22;4703;48.748;19.142;2023-03-01T09:26:40;5.70;94.30
9329;DHT22;4703;48.748;19.142;2023-03-01T09:29:07;8.50;95.40
9329;DHT22;4703;48.748;19.142;2023-03-01T09:31:36;7.70;94.90
9329;DHT22;4703;48.748;19.142;2023-03-01T09:34:03;6.10;93.70
9329;DHT22;4703;48.748;19.142;2023-03-01T09:36:31;7.90;94.50
9329;DHT22;4703;48.748;19.142;2023-03-01T09:38:58;6.30;93.80
9329;DHT22;4703;48.748;19.142;2023-03-01T09:44:27;6.90;93.30
9329;DHT22;4703;48.748;19.142;2023-03-01T09:47:01;7.30;92.40
9329;DHT22;4703;48.748;19.142;2023-03-01T09:49:34;9.60;92.20
9329;DHT22;4703;48.748;19.142;2023-03-01T09:52:23;8.40;90.80
9329;DHT22;4703;48.748;19.142;2023-03-01T09:54:56;7.90;88.40
9329;DHT22;4703;48.748;19.142;2023-03-01T10:03:17;8.40;86.30
9329;DHT22;4703;48.748;19.142;2023-03-01T10:05:59;8.70;82.90
9329;DHT22;4703;48.748;19.142;2023-03-01T10:08:34;8.90;82.20
9329;DHT22;4703;48.748;19.142;2023-03-01T10:11:17;9.20;82.30
9329;DHT22;4703;48.748;19.142;2023-03-01T10:14:05;9.60;81.50
9329;DHT22;4703;48.748;19.142;2023-03-01T10:16:55;9.90;79.20
9329;DHT22;4703;48.748;19.142;2023-03-01T10:19:44;10.20;76.20
9329;DHT22;4703;48.748;19.142;2023-03-01T10:22:28;10.30;74.20
9329;DHT22;4703;48.748;19.142;2023-03-01T10:24:59;10.40;72.60
9329;DHT22;4703;48.748;19.142;2023-03-01T10:27:51;12.40;73.90
9329;DHT22;4703;48.748;19.142;2023-03-01T10:30:37;10.90;70.20
9329;DHT22;4703;48.748;19.142;2023-03-01T10:33:27;10.80;68.60
9329;DHT22;4703;48.748;19.142;2023-03-01T10:35:56;12.30;67.90
9329;DHT22;4703;48.748;19.142;2023-03-01T10:38:24;11.10;66.00
9329;DHT22;4703;48.748;19.142;2023-03-01T10:41:04;11.90;66.40
9329;DHT22;4703;48.748;19.142;2023-03-01T10:43:58;11.20;65.70
9329;DHT22;4703;48.748;19.142;2023-03-01T10:46:37;11.30;65.40
9329;DHT22;4703;48.748;19.142;2023-03-01T10:49:14;11.50;65.60
9329;DHT22;4703;48.748;19.142;2023-03-01T10:51:53;11.40;64.00
9329;DHT22;4703;48.748;19.142;2023-03-01T10:54:31;11.40;65.30
9329;DHT22;4703;48.748;19.142;2023-03-01T10:57:01;11.80;67.10
9329;DHT22;4703;48.748;19.142;2023-03-01T10:59:37;11.40;65.90
9329;DHT22;4703;48.748;19.142;2023-03-01T11:02:40;11.50;63.80
9329;DHT22;4703;48.748;19.142;2023-03-01T11:05:26;12.00;64.40
9329;DHT22;4703;48.748;19.142;2023-03-01T11:07:58;12.00;63.60
9329;DHT22;4703;48.748;19.142;2023-03-01T11:10:28;13.50;65.80
9329;DHT22;4703;48.748;19.142;2023-03-01T11:13:14;12.00;64.70
9329;DHT22;4703;48.748;19.142;2023-03-01T11:16:02;12.10;63.40
9329;DHT22;4703;48.748;19.142;2023-03-01T11:18:33;12.20;62.60
9329;DHT22;4703;48.748;19.142;2023-03-01T11:21:14;12.30;64.70
9329;DHT22;4703;48.748;19.142;2023-03-01T11:23:43;12.50;65.00
9329;DHT22;4703;48.748;19.142;2023-03-01T11:26:13;12.80;65.60
9329;DHT22;4703;48.748;19.142;2023-03-01T11:28:42;14.30;67.40
9329;DHT22;4703;48.748;19.142;2023-03-01T11:31:11;13.40;65.50
9329;DHT22;4703;48.748;19.142;2023-03-01T11:33:54;14.60;64.70
9329;DHT22;4703;48.748;19.142;2023-03-01T11:36:49;14.30;65.60
9329;DHT22;4703;48.748;19.142;2023-03-01T11:39:31;14.40;64.50
9329;DHT22;4703;48.748;19.142;2023-03-01T11:42:10;14.90;64.10
9329;DHT22;4703;48.748;19.142;2023-03-01T11:44:48;15.30;63.90
9329;DHT22;4703;48.748;19.142;2023-03-01T11:47:37;15.70;63.20
9329;DHT22;4703;48.748;19.142;2023-03-01T11:50:30;16.00;60.80
9329;DHT22;4703;48.748;19.142;2023-03-01T11:56:12;16.50;58.20
9329;DHT22;4703;48.748;19.142;2023-03-01T11:59:02;16.50;57.90
9329;DHT22;4703;48.748;19.142;2023-03-01T12:08:05;16.10;56.50
9329;DHT22;4703;48.748;19.142;2023-03-01T12:10:42;15.90;56.70
9329;DHT22;4703;48.748;19.142;2023-03-01T12:19:37;16.20;57.40
9329;DHT22;4703;48.748;19.142;2023-03-01T12:22:17;16.70;57.80
9329;DHT22;4703;48.748;19.142;2023-03-01T12:25:18;16.90;56.30
9329;DHT22;4703;48.748;19.142;2023-03-01T12:28:04;16.90;54.70
9329;DHT22;4703;48.748;19.142;2023-03-01T12:33:41;16.80;54.90
9329;DHT22;4703;48.748;19.142;2023-03-01T12:42:31;16.10;55.10
9329;DHT22;4703;48.748;19.142;2023-03-01T12:45:26;16.10;55.70
9329;DHT22;4703;48.748;19.142;2023-03-01T12:50:53;15.90;55.10
9329;DHT22;4703;48.748;19.142;2023-03-01T12:53:37;15.90;54.60
9329;DHT22;4703;48.748;19.142;2023-03-01T12:56:11;15.90;53.90
9329;DHT22;4703;48.748;19.142;2023-03-01T12:59:09;15.90;54.70
9329;DHT22;4703;48.748;19.142;2023-03-01T13:01:48;15.90;54.60
9329;DHT22;4703;48.748;19.142;2023-03-01T13:04:43;15.80;54.80
9329;DHT22;4703;48.748;19.142;2023-03-01T13:17:51;16.30;53.30
9329;DHT22;4703;48.748;19.142;2023-03-01T13:20:23;16.40;53.40
9329;DHT22;4703;48.748;19.142;2023-03-01T13:28:42;16.20;52.60
9329;DHT22;4703;48.748;19.142;2023-03-01T13:33:49;16.10;53.20
9329;DHT22;4703;48.748;19.142;2023-03-01T13:39:29;16.30;53.40
9329;DHT22;4703;48.748;19.142;2023-03-01T13:42:00;16.00;53.00
9329;DHT22;4703;48.748;19.142;2023-03-01T13:44:36;15.90;54.00
9329;DHT22;4703;48.748;19.142;2023-03-01T13:49:57;15.20;54.10
9329;DHT22;4703;48.748;19.142;2023-03-01T13:52:44;14.70;54.70
9329;DHT22;4703;48.748;19.142;2023-03-01T13:57:53;14.30;55.40
9329;DHT22;4703;48.748;19.142;2023-03-01T14:00:38;14.00;56.10
9329;DHT22;4703;48.748;19.142;2023-03-01T14:03:24;13.60;56.30
9329;DHT22;4703;48.748;19.142;2023-03-01T14:06:06;13.70;57.40
9329;DHT22;4703;48.748;19.142;2023-03-01T14:08:49;13.20;57.40
9329;DHT22;4703;48.748;19.142;2023-03-01T14:14:56;12.80;58.20
9329;DHT22;4703;48.748;19.142;2023-03-01T14:17:58;12.60;58.80
9329;DHT22;4703;48.748;19.142;2023-03-01T14:20:43;12.40;59.10
9329;DHT22;4703;48.748;19.142;2023-03-01T14:23:23;12.20;59.90
9329;DHT22;4703;48.748;19.142;2023-03-01T14:25:55;12.20;60.20
9329;DHT22;4703;48.748;19.142;2023-03-01T14:28:28;12.00;60.00
9329;DHT22;4703;48.748;19.142;2023-03-01T14:30:58;12.80;61.40
9329;DHT22;4703;48.748;19.142;2023-03-01T14:33:35;13.80;62.80
9329;DHT22;4703;48.748;19.142;2023-03-01T14:38:42;11.70;61.50
9329;DHT22;4703;48.748;19.142;2023-03-01T14:41:14;12.10;62.60
9329;DHT22;4703;48.748;19.142;2023-03-01T14:43:49;11.60;62.70
9329;DHT22;4703;48.748;19.142;2023-03-01T14:46:43;12.30;63.50
9329;DHT22;4703;48.748;19.142;2023-03-01T14:49:19;11.50;62.10
9329;DHT22;4703;48.748;19.142;2023-03-01T14:52:16;12.80;64.70
9329;DHT22;4703;48.748;19.142;2023-03-01T14:54:54;11.40;62.40
9329;DHT22;4703;48.748;19.142;2023-03-01T14:57:24;11.40;62.90
9329;DHT22;4703;48.748;19.142;2023-03-01T15:00:03;13.10;64.80
9329;DHT22;4703;48.748;19.142;2023-03-01T15:02:33;12.30;63.90
9329;DHT22;4703;48.748;19.142;2023-03-01T15:05:02;11.30;63.60
9329;DHT22;4703;48.748;19.142;2023-03-01T15:07:39;11.30;63.50
9329;DHT22;4703;48.748;19.142;2023-03-01T15:10:17;12.70;65.10
9329;DHT22;4703;48.748;19.142;2023-03-01T15:12:47;11.30;63.40
9329;DHT22;4703;48.748;19.142;2023-03-01T15:17:54;11.30;63.90
9329;DHT22;4703;48.748;19.142;2023-03-01T15:20:25;11.30;64.00
9329;DHT22;4703;48.748;19.142;2023-03-01T15:22:55;12.70;66.20
9329;DHT22;4703;48.748;19.142;2023-03-01T15:25:27;13.30;66.10
9329;DHT22;4703;48.748;19.142;2023-03-01T15:27:58;13.00;66.50
9329;DHT22;4703;48.748;19.142;2023-03-01T15:30:32;12.80;66.60
9329;DHT22;4703;48.748;19.142;2023-03-01T15:33:27;13.70;66.60
9329;DHT22;4703;48.748;19.142;2023-03-01T15:36:01;13.20;63.00
9329;DHT22;4703;48.748;19.142;2023-03-01T15:38:54;13.50;60.80
9329;DHT22;4703;48.748;19.142;2023-03-01T15:41:28;13.60;60.20
9329;DHT22;4703;48.748;19.142;2023-03-01T15:43:59;13.50;59.70
9329;DHT22;4703;48.748;19.142;2023-03-01T15:46:35;14.50;61.90
9329;DHT22;4703;48.748;19.142;2023-03-01T15:49:40;13.20;62.30
9329;DHT22;4703;48.748;19.142;2023-03-01T15:52:25;12.40;64.20
9329;DHT22;4703;48.748;19.142;2023-03-01T15:55:01;12.90;65.20
9329;DHT22;4703;48.748;19.142;2023-03-01T15:57:30;11.60;65.50
9329;DHT22;4703;48.748;19.142;2023-03-01T15:59:57;11.30;66.70
9329;DHT22;4703;48.748;19.142;2023-03-01T16:02:24;12.50;69.20
9329;DHT22;4703;48.748;19.142;2023-03-01T16:04:51;10.90;68.60
9329;DHT22;4703;48.748;19.142;2023-03-01T16:07:20;11.20;69.50
9329;DHT22;4703;48.748;19.142;2023-03-01T16:09:50;12.40;72.00
9329;DHT22;4703;48.748;19.142;2023-03-01T16:12:22;10.20;70.60
9329;DHT22;4703;48.748;19.142;2023-03-01T16:14:53;10.10;72.30
9329;DHT22;4703;48.748;19.142;2023-03-01T16:17:24;9.90;73.80
9329;DHT22;4703;48.748;19.142;2023-03-01T16:19:51;9.70;74.60
9329;DHT22;4703;48.748;19.142;2023-03-01T16:22:18;10.70;75.60
9329;DHT22;4703;48.748;19.142;2023-03-01T16:24:51;10.90;77.20
9329;DHT22;4703;48.748;19.142;2023-03-01T16:27:18;9.20;78.00
9329;DHT22;4703;48.748;19.142;2023-03-01T16:29:47;11.20;80.60
9329;DHT22;4703;48.748;19.142;2023-03-01T16:32:13;9.00;80.20
9329;DHT22;4703;48.748;19.142;2023-03-01T16:34:41;11.00;81.80
9329;DHT22;4703;48.748;19.142;2023-03-01T16:37:07;11.00;82.30
9329;DHT22;4703;48.748;19.142;2023-03-01T16:39:38;10.50;82.40
9329;DHT22;4703;48.748;19.142;2023-03-01T16:42:05;8.70;82.60
9329;DHT22;4703;48.748;19.142;2023-03-01T16:44:32;8.70;83.10
9329;DHT22;4703;48.748;19.142;2023-03-01T16:46:59;10.00;84.20
9329;DHT22;4703;48.748;19.142;2023-03-01T16:49:26;11.30;86.50
9329;DHT22;4703;48.748;19.142;2023-03-01T16:51:55;9.80;87.20
9329;DHT22;4703;48.748;19.142;2023-03-01T16:54:22;8.30;86.20
9329;DHT22;4703;48.748;19.142;2023-03-01T16:56:50;8.20;86.80
9329;DHT22;4703;48.748;19.142;2023-03-01T16:59:17;8.10;87.30
9329;DHT22;4703;48.748;19.142;2023-03-01T17:01:45;8.00;88.70
9329;DHT22;4703;48.748;19.142;2023-03-01T17:04:13;9.60;90.70
9329;DHT22;4703;48.748;19.142;2023-03-01T17:06:40;9.50;91.10
9329;DHT22;4703;48.748;19.142;2023-03-01T17:09:07;9.20;91.40
9329;DHT22;4703;48.748;19.142;2023-03-01T17:11:35;7.70;91.40
9329;DHT22;4703;48.748;19.142;2023-03-01T17:14:02;7.60;91.70
9329;DHT22;4703;48.748;19.142;2023-03-01T17:16:29;7.60;92.20
9329;DHT22;4703;48.748;19.142;2023-03-01T17:18:56;7.50;92.30
9329;DHT22;4703;48.748;19.142;2023-03-01T17:21:23;8.50;93.30
9329;DHT22;4703;48.748;19.142;2023-03-01T17:23:56;7.30;92.70
9329;DHT22;4703;48.748;19.142;2023-03-01T17:26:23;9.70;94.50
9329;DHT22;4703;48.748;19.142;2023-03-01T17:28:51;7.20;94.20
9329;DHT22;4703;48.748;19.142;2023-03-01T17:31:19;7.10;94.30
9329;DHT22;4703;48.748;19.142;2023-03-01T17:33:46;7.10;94.40
9329;DHT22;4703;48.748;19.142;2023-03-01T17:36:13;7.10;94.40
9329;DHT22;4703;48.748;19.142;2023-03-01T17:38:40;7.40;94.70
9329;DHT22;4703;48.748;19.142;2023-03-01T17:41:07;6.90;94.50
9329;DHT22;4703;48.748;19.142;2023-03-01T17:43:36;6.90;94.80
9329;DHT22;4703;48.748;19.142;2023-03-01T17:46:03;9.30;96.10
9329;DHT22;4703;48.748;19.142;2023-03-01T17:48:30;9.20;96.10
9329;DHT22;4703;48.748;19.142;2023-03-01T17:50:57;6.70;95.10
9329;DHT22;4703;48.748;19.142;2023-03-01T17:53:24;6.70;95.20
9329;DHT22;4703;48.748;19.142;2023-03-01T17:55:58;6.70;95.20
9329;DHT22;4703;48.748;19.142;2023-03-01T17:58:27;9.40;96.70
9329;DHT22;4703;48.748;19.142;2023-03-01T18:00:54;6.50;95.50